sensor_id;sensor_type;location;lat;lon;timestamp;P1;durP1;ratioP1;P2;durP2;ratioP2
51525;SDS011;37611;51.794;21.590;2023-09-12T00:31:51;30.40;;;24.30;;
51525;SDS011;37611;51.794;21.590;2023-09-12T00:35:53;30.10;;;23.40;;
51525;SDS011;37611;51.794;21.590;2023-09-12T00:39:54;28.30;;;24.40;;
51525;SDS011;37611;51.794;21.590;2023-09-12T00:43:56;28.60;;;24.50;;
51525;SDS011;37611;51.794;21.590;2023-09-12T00:47:59;27.50;;;23.80;;
51525;SDS011;37611;51.794;21.590;2023-09-12T00:52:06;30.50;;;24.40;;
51525;SDS011;37611;51.794;21.590;2023-09-12T00:56:09;25.70;;;22.90;;
51525;SDS011;37611;51.794;21.590;2023-09-12T01:00:12;27.60;;;24.10;;
51525;SDS011;37611;51.794;21.590;2023-09-12T01:04:14;26.70;;;23.10;;
51525;SDS011;37611;51.794;21.590;2023-09-12T01:08:16;33.80;;;23.60;;
51525;SDS011;37611;51.794;21.590;2023-09-12T01:12:19;29.00;;;23.80;;
51525;SDS011;37611;51.794;21.590;2023-09-12T01:16:21;30.80;;;23.20;;
51525;SDS011;37611;51.794;21.590;2023-09-12T03:48:14;33.80;;;28.00;;
51525;SDS011;37611;51.794;21.590;2023-09-12T03:52:16;34.80;;;26.80;;
51525;SDS011;37611;51.794;21.590;2023-09-12T03:56:18;34.60;;;26.70;;
51525;SDS011;37611;51.794;21.590;2023-09-12T04:00:23;34.20;;;26.90;;
51525;SDS011;37611;51.794;21.590;2023-09-12T04:04:24;32.40;;;26.00;;
51525;SDS011;37611;51.794;21.590;2023-09-12T04:08:26;34.30;;;26.60;;
51525;SDS011;37611;51.794;21.590;2023-09-12T04:12:28;33.10;;;26.80;;
51525;SDS011;37611;51.794;21.590;2023-09-12T04:16:30;30.30;;;26.10;;
51525;SDS011;37611;51.794;21.590;2023-09-12T04:20:31;33.20;;;27.10;;
51525;SDS011;37611;51.794;21.590;2023-09-12T04:24:33;38.00;;;27.60;;
51525;SDS011;37611;51.794;21.590;2023-09-12T04:28:37;51.50;;;31.00;;
51525;SDS011;37611;51.794;21.590;2023-09-12T04:32:38;43.80;;;30.40;;
51525;SDS011;37611;51.794;21.590;2023-09-12T04:36:40;45.80;;;30.70;;
51525;SDS011;37611;51.794;21.590;2023-09-12T04:40:43;43.50;;;33.00;;
51525;SDS011;37611;51.794;21.590;2023-09-12T04:44:44;48.40;;;32.70;;
51525;SDS011;37611;51.794;21.590;2023-09-12T04:48:46;48.80;;;34.40;;
51525;SDS011;37611;51.794;21.590;2023-09-12T04:52:48;44.30;;;32.50;;
51525;SDS011;37611;51.794;21.590;2023-09-12T04:56:51;43.90;;;31.90;;
51525;SDS011;37611;51.794;21.590;2023-09-12T05:00:56;34.50;;;28.30;;
51525;SDS011;37611;51.794;21.590;2023-09-12T05:04:58;32.60;;;28.00;;
51525;SDS011;37611;51.794;21.590;2023-09-12T05:09:00;35.10;;;30.20;;
51525;SDS011;37611;51.794;21.590;2023-09-12T05:13:02;41.00;;;29.10;;
51525;SDS011;37611;51.794;21.590;2023-09-12T05:17:04;35.10;;;29.60;;
51525;SDS011;37611;51.794;21.590;2023-09-12T05:21:06;33.20;;;29.90;;
51525;SDS011;37611;51.794;21.590;2023-09-12T05:25:08;37.10;;;30.20;;
51525;SDS011;37611;51.794;21.590;2023-09-12T06:44:35;33.20;;;29.70;;
51525;SDS011;37611;51.794;21.590;2023-09-12T06:48:36;34.70;;;29.00;;
51525;SDS011;37611;51.794;21.590;2023-09-12T06:52:38;35.10;;;28.90;;
51525;SDS011;37611;51.794;21.590;2023-09-12T06:56:40;42.60;;;31.90;;
51525;SDS011;37611;51.794;21.590;2023-09-12T07:00:44;33.90;;;30.30;;
51525;SDS011;37611;51.794;21.590;2023-09-12T07:04:45;32.80;;;29.00;;
51525;SDS011;37611;51.794;21.590;2023-09-12T07:08:47;33.00;;;28.60;;
51525;SDS011;37611;51.794;21.590;2023-09-12T07:12:49;37.10;;;28.70;;
51525;SDS011;37611;51.794;21.590;2023-09-12T07:16:51;30.70;;;25.00;;
51525;SDS011;37611;51.794;21.590;2023-09-12T07:21:00;34.40;;;26.30;;
51525;SDS011;37611;51.794;21.590;2023-09-12T07:25:03;27.50;;;24.60;;
51525;SDS011;37611;51.794;21.590;2023-09-12T07:29:05;25.90;;;23.20;;
51525;SDS011;37611;51.794;21.590;2023-09-12T07:33:07;27.30;;;22.40;;
51525;SDS011;37611;51.794;21.590;2023-09-12T07:37:09;28.50;;;22.90;;
51525;SDS011;37611;51.794;21.590;2023-09-12T07:41:11;31.60;;;20.60;;
51525;SDS011;37611;51.794;21.590;2023-09-12T07:45:12;59.80;;;25.40;;
51525;SDS011;37611;51.794;21.590;2023-09-12T07:49:15;38.60;;;21.60;;
51525;SDS011;37611;51.794;21.590;2023-09-12T07:53:16;19.40;;;17.40;;
51525;SDS011;37611;51.794;21.590;2023-09-12T07:57:19;17.40;;;15.60;;
51525;SDS011;37611;51.794;21.590;2023-09-12T08:01:20;17.20;;;15.50;;
51525;SDS011;37611;51.794;21.590;2023-09-12T08:05:22;20.80;;;15.30;;
51525;SDS011;37611;51.794;21.590;2023-09-12T08:09:28;16.60;;;15.10;;
51525;SDS011;37611;51.794;21.590;2023-09-12T08:13:51;16.30;;;14.70;;
51525;SDS011;37611;51.794;21.590;2023-09-12T08:17:53;16.30;;;14.00;;
51525;SDS011;37611;51.794;21.590;2023-09-12T08:21:56;17.50;;;13.90;;
51525;SDS011;37611;51.794;21.590;2023-09-12T08:25:57;16.40;;;14.50;;
51525;SDS011;37611;51.794;21.590;2023-09-12T08:29:59;15.40;;;13.60;;
51525;SDS011;37611;51.794;21.590;2023-09-12T08:34:01;13.90;;;12.50;;
51525;SDS011;37611;51.794;21.590;2023-09-12T08:38:03;16.00;;;14.20;;
51525;SDS011;37611;51.794;21.590;2023-09-12T08:42:05;14.90;;;13.40;;
51525;SDS011;37611;51.794;21.590;2023-09-12T08:46:10;14.90;;;12.50;;
51525;SDS011;37611;51.794;21.590;2023-09-12T08:50:14;21.60;;;12.80;;
51525;SDS011;37611;51.794;21.590;2023-09-12T08:54:17;14.50;;;12.30;;
51525;SDS011;37611;51.794;21.590;2023-09-12T08:58:19;17.80;;;13.50;;
51525;SDS011;37611;51.794;21.590;2023-09-12T09:02:22;20.30;;;11.50;;
51525;SDS011;37611;51.794;21.590;2023-09-12T09:06:24;21.40;;;12.60;;
51525;SDS011;37611;51.794;21.590;2023-09-12T09:10:27;16.20;;;11.90;;
51525;SDS011;37611;51.794;21.590;2023-09-12T09:14:33;14.80;;;10.50;;
51525;SDS011;37611;51.794;21.590;2023-09-12T09:18:51;19.00;;;10.80;;
51525;SDS011;37611;51.794;21.590;2023-09-12T09:23:05;10.80;;;8.80;;
51525;SDS011;37611;51.794;21.590;2023-09-12T09:27:10;13.10;;;9.90;;
51525;SDS011;37611;51.794;21.590;2023-09-12T09:31:12;9.70;;;8.20;;
51525;SDS011;37611;51.794;21.590;2023-09-12T09:35:14;11.80;;;7.70;;
51525;SDS011;37611;51.794;21.590;2023-09-12T09:39:17;8.50;;;7.60;;
51525;SDS011;37611;51.794;21.590;2023-09-12T09:43:20;11.00;;;8.50;;
51525;SDS011;37611;51.794;21.590;2023-09-12T09:47:26;10.30;;;7.90;;
51525;SDS011;37611;51.794;21.590;2023-09-12T09:51:30;10.60;;;8.40;;
51525;SDS011;37611;51.794;21.590;2023-09-12T09:55:33;8.80;;;8.00;;
51525;SDS011;37611;51.794;21.590;2023-09-12T09:59:35;9.60;;;8.50;;
51525;SDS011;37611;51.794;21.590;2023-09-12T10:03:37;9.30;;;8.40;;
51525;SDS011;37611;51.794;21.590;2023-09-12T10:07:39;8.90;;;8.20;;
51525;SDS011;37611;51.794;21.590;2023-09-12T10:11:43;13.30;;;9.40;;
51525;SDS011;37611;51.794;21.590;2023-09-12T10:15:48;13.20;;;9.90;;
51525;SDS011;37611;51.794;21.590;2023-09-12T10:19:54;9.90;;;8.90;;
51525;SDS011;37611;51.794;21.590;2023-09-12T10:23:58;10.90;;;9.10;;
51525;SDS011;37611;51.794;21.590;2023-09-12T10:28:02;13.30;;;9.80;;
51525;SDS011;37611;51.794;21.590;2023-09-12T10:32:06;13.50;;;10.60;;
51525;SDS011;37611;51.794;21.590;2023-09-12T10:36:09;12.20;;;9.60;;
51525;SDS011;37611;51.794;21.590;2023-09-12T10:40:13;10.00;;;9.00;;
51525;SDS011;37611;51.794;21.590;2023-09-12T10:44:17;11.30;;;10.00;;
51525;SDS011;37611;51.794;21.590;2023-09-12T10:48:19;10.30;;;9.20;;
51525;SDS011;37611;51.794;21.590;2023-09-12T10:52:24;10.50;;;9.60;;
51525;SDS011;37611;51.794;21.590;2023-09-12T10:56:27;63.60;;;17.40;;
51525;SDS011;37611;51.794;21.590;2023-09-12T11:00:33;10.90;;;9.80;;
51525;SDS011;37611;51.794;21.590;2023-09-12T11:04:35;11.00;;;9.80;;
51525;SDS011;37611;51.794;21.590;2023-09-12T11:08:40;10.70;;;9.50;;
51525;SDS011;37611;51.794;21.590;2023-09-12T11:12:42;36.00;;;14.50;;
51525;SDS011;37611;51.794;21.590;2023-09-12T11:21:08;10.80;;;9.70;;
51525;SDS011;37611;51.794;21.590;2023-09-12T11:29:20;10.30;;;9.30;;
51525;SDS011;37611;51.794;21.590;2023-09-12T11:33:23;11.10;;;9.90;;
51525;SDS011;37611;51.794;21.590;2023-09-12T11:37:28;14.30;;;9.60;;
51525;SDS011;37611;51.794;21.590;2023-09-12T11:41:40;10.60;;;9.60;;
51525;SDS011;37611;51.794;21.590;2023-09-12T11:45:42;10.70;;;9.60;;
51525;SDS011;37611;51.794;21.590;2023-09-12T11:49:45;10.30;;;9.40;;
51525;SDS011;37611;51.794;21.590;2023-09-12T11:53:49;10.20;;;9.10;;
51525;SDS011;37611;51.794;21.590;2023-09-12T11:57:52;13.40;;;9.80;;
51525;SDS011;37611;51.794;21.590;2023-09-12T12:01:55;10.60;;;9.60;;
51525;SDS011;37611;51.794;21.590;2023-09-12T12:05:57;10.80;;;9.80;;
51525;SDS011;37611;51.794;21.590;2023-09-12T12:09:59;11.00;;;9.90;;
51525;SDS011;37611;51.794;21.590;2023-09-12T12:14:14;10.80;;;9.70;;
51525;SDS011;37611;51.794;21.590;2023-09-12T12:18:17;10.90;;;9.80;;
51525;SDS011;37611;51.794;21.590;2023-09-12T12:22:19;11.40;;;10.20;;
51525;SDS011;37611;51.794;21.590;2023-09-12T12:26:21;11.50;;;10.30;;
51525;SDS011;37611;51.794;21.590;2023-09-12T12:30:23;11.80;;;10.60;;
51525;SDS011;37611;51.794;21.590;2023-09-12T12:34:25;10.90;;;9.90;;
51525;SDS011;37611;51.794;21.590;2023-09-12T12:38:31;11.50;;;10.30;;
51525;SDS011;37611;51.794;21.590;2023-09-12T12:46:52;11.00;;;9.90;;
51525;SDS011;37611;51.794;21.590;2023-09-12T12:50:55;13.00;;;10.10;;
51525;SDS011;37611;51.794;21.590;2023-09-12T12:55:03;11.30;;;10.00;;
51525;SDS011;37611;51.794;21.590;2023-09-12T12:59:08;11.60;;;10.50;;
51525;SDS011;37611;51.794;21.590;2023-09-12T13:03:12;13.00;;;11.60;;
51525;SDS011;37611;51.794;21.590;2023-09-12T13:07:13;14.60;;;11.80;;
51525;SDS011;37611;51.794;21.590;2023-09-12T13:11:15;15.20;;;11.60;;
51525;SDS011;37611;51.794;21.590;2023-09-12T13:15:17;12.80;;;11.50;;
51525;SDS011;37611;51.794;21.590;2023-09-12T13:19:20;13.30;;;11.80;;
51525;SDS011;37611;51.794;21.590;2023-09-12T13:23:21;13.50;;;11.60;;
51525;SDS011;37611;51.794;21.590;2023-09-12T13:27:25;14.80;;;11.80;;
51525;SDS011;37611;51.794;21.590;2023-09-12T13:31:27;13.10;;;11.80;;
51525;SDS011;37611;51.794;21.590;2023-09-12T13:35:29;12.70;;;11.40;;
51525;SDS011;37611;51.794;21.590;2023-09-12T13:39:30;13.40;;;12.10;;
51525;SDS011;37611;51.794;21.590;2023-09-12T13:43:32;15.50;;;12.60;;
51525;SDS011;37611;51.794;21.590;2023-09-12T13:47:34;12.60;;;11.50;;
51525;SDS011;37611;51.794;21.590;2023-09-12T13:51:35;13.10;;;11.70;;
51525;SDS011;37611;51.794;21.590;2023-09-12T13:55:37;12.50;;;11.30;;
51525;SDS011;37611;51.794;21.590;2023-09-12T13:59:39;13.60;;;12.40;;
51525;SDS011;37611;51.794;21.590;2023-09-12T14:03:41;13.60;;;12.40;;
51525;SDS011;37611;51.794;21.590;2023-09-12T14:07:43;13.70;;;12.40;;
51525;SDS011;37611;51.794;21.590;2023-09-12T14:11:44;12.50;;;11.40;;
51525;SDS011;37611;51.794;21.590;2023-09-12T14:15:48;13.80;;;12.40;;
51525;SDS011;37611;51.794;21.590;2023-09-12T14:19:51;13.30;;;12.20;;
51525;SDS011;37611;51.794;21.590;2023-09-12T14:23:53;13.40;;;12.10;;
51525;SDS011;37611;51.794;21.590;2023-09-12T14:27:54;13.90;;;12.70;;
51525;SDS011;37611;51.794;21.590;2023-09-12T14:31:56;13.30;;;12.10;;
51525;SDS011;37611;51.794;21.590;2023-09-12T14:36:00;13.10;;;11.80;;
51525;SDS011;37611;51.794;21.590;2023-09-12T14:40:06;13.30;;;12.10;;
51525;SDS011;37611;51.794;21.590;2023-09-12T14:44:08;13.90;;;12.50;;
51525;SDS011;37611;51.794;21.590;2023-09-12T14:48:10;12.50;;;11.40;;
51525;SDS011;37611;51.794;21.590;2023-09-12T14:52:12;13.30;;;12.10;;
51525;SDS011;37611;51.794;21.590;2023-09-12T14:56:13;13.20;;;12.00;;
51525;SDS011;37611;51.794;21.590;2023-09-12T15:00:15;12.90;;;11.80;;
51525;SDS011;37611;51.794;21.590;2023-09-12T15:04:17;13.80;;;12.60;;
51525;SDS011;37611;51.794;21.590;2023-09-12T15:08:19;13.40;;;12.20;;
51525;SDS011;37611;51.794;21.590;2023-09-12T15:12:38;13.50;;;12.20;;
51525;SDS011;37611;51.794;21.590;2023-09-12T15:16:39;13.90;;;12.50;;
51525;SDS011;37611;51.794;21.590;2023-09-12T15:20:41;14.20;;;12.60;;
51525;SDS011;37611;51.794;21.590;2023-09-12T15:24:43;13.60;;;12.20;;
51525;SDS011;37611;51.794;21.590;2023-09-12T15:28:45;14.00;;;12.50;;
51525;SDS011;37611;51.794;21.590;2023-09-12T15:32:46;14.50;;;12.80;;
51525;SDS011;37611;51.794;21.590;2023-09-12T15:36:48;13.50;;;12.20;;
51525;SDS011;37611;51.794;21.590;2023-09-12T15:40:51;14.70;;;12.60;;
51525;SDS011;37611;51.794;21.590;2023-09-12T15:44:53;14.70;;;13.10;;
51525;SDS011;37611;51.794;21.590;2023-09-12T15:48:55;14.90;;;13.60;;
51525;SDS011;37611;51.794;21.590;2023-09-12T15:52:57;15.00;;;13.50;;
51525;SDS011;37611;51.794;21.590;2023-09-12T15:56:58;20.10;;;13.70;;
51525;SDS011;37611;51.794;21.590;2023-09-12T16:01:01;14.70;;;13.30;;
51525;SDS011;37611;51.794;21.590;2023-09-12T16:05:05;16.20;;;14.70;;
51525;SDS011;37611;51.794;21.590;2023-09-12T16:09:07;15.10;;;13.70;;
51525;SDS011;37611;51.794;21.590;2023-09-12T16:13:09;15.40;;;14.00;;
51525;SDS011;37611;51.794;21.590;2023-09-12T16:17:11;15.20;;;13.70;;
51525;SDS011;37611;51.794;21.590;2023-09-12T16:21:12;16.50;;;14.80;;
51525;SDS011;37611;51.794;21.590;2023-09-12T16:25:14;16.20;;;14.50;;
51525;SDS011;37611;51.794;21.590;2023-09-12T16:29:16;20.90;;;15.60;;
51525;SDS011;37611;51.794;21.590;2023-09-12T16:33:18;23.90;;;17.10;;
51525;SDS011;37611;51.794;21.590;2023-09-12T16:37:20;24.80;;;17.60;;
51525;SDS011;37611;51.794;21.590;2023-09-12T16:41:21;40.60;;;32.60;;
51525;SDS011;37611;51.794;21.590;2023-09-12T16:45:23;48.80;;;37.80;;
51525;SDS011;37611;51.794;21.590;2023-09-12T16:49:25;50.70;;;42.90;;
51525;SDS011;37611;51.794;21.590;2023-09-12T16:53:27;32.20;;;23.50;;
51525;SDS011;37611;51.794;21.590;2023-09-12T16:57:29;31.90;;;25.40;;
51525;SDS011;37611;51.794;21.590;2023-09-12T17:01:31;99.90;;;58.40;;
51525;SDS011;37611;51.794;21.590;2023-09-12T17:05:33;121.80;;;75.10;;
51525;SDS011;37611;51.794;21.590;2023-09-12T17:09:35;81.10;;;55.90;;
51525;SDS011;37611;51.794;21.590;2023-09-12T17:13:37;77.60;;;51.90;;
51525;SDS011;37611;51.794;21.590;2023-09-12T17:17:39;49.20;;;38.90;;
51525;SDS011;37611;51.794;21.590;2023-09-12T17:21:41;60.70;;;45.90;;
51525;SDS011;37611;51.794;21.590;2023-09-12T17:25:42;64.60;;;49.90;;
51525;SDS011;37611;51.794;21.590;2023-09-12T17:29:44;86.90;;;58.30;;
51525;SDS011;37611;51.794;21.590;2023-09-12T17:33:46;70.90;;;51.50;;
51525;SDS011;37611;51.794;21.590;2023-09-12T17:37:48;65.20;;;44.30;;
51525;SDS011;37611;51.794;21.590;2023-09-12T17:41:50;77.90;;;49.90;;
51525;SDS011;37611;51.794;21.590;2023-09-12T17:45:53;75.30;;;52.90;;
51525;SDS011;37611;51.794;21.590;2023-09-12T17:49:55;86.10;;;61.20;;
51525;SDS011;37611;51.794;21.590;2023-09-12T17:53:57;74.90;;;56.40;;
51525;SDS011;37611;51.794;21.590;2023-09-12T17:57:59;72.40;;;53.90;;
51525;SDS011;37611;51.794;21.590;2023-09-12T18:02:01;87.60;;;56.30;;
51525;SDS011;37611;51.794;21.590;2023-09-12T18:06:04;69.70;;;52.30;;
51525;SDS011;37611;51.794;21.590;2023-09-12T18:10:06;72.30;;;53.70;;
51525;SDS011;37611;51.794;21.590;2023-09-12T18:14:23;68.40;;;54.70;;
51525;SDS011;37611;51.794;21.590;2023-09-12T18:18:25;62.10;;;50.30;;
51525;SDS011;37611;51.794;21.590;2023-09-12T18:22:27;62.10;;;42.90;;
51525;SDS011;37611;51.794;21.590;2023-09-12T18:26:29;50.20;;;37.30;;
51525;SDS011;37611;51.794;21.590;2023-09-12T18:30:31;48.60;;;37.80;;
51525;SDS011;37611;51.794;21.590;2023-09-12T18:34:32;84.10;;;60.60;;
51525;SDS011;37611;51.794;21.590;2023-09-12T18:38:34;56.30;;;43.60;;
51525;SDS011;37611;51.794;21.590;2023-09-12T18:42:36;37.50;;;30.30;;
51525;SDS011;37611;51.794;21.590;2023-09-12T18:46:38;32.60;;;28.70;;
51525;SDS011;37611;51.794;21.590;2023-09-12T18:50:40;26.40;;;23.80;;
51525;SDS011;37611;51.794;21.590;2023-09-12T18:54:44;27.40;;;24.90;;
51525;SDS011;37611;51.794;21.590;2023-09-12T18:58:46;27.40;;;24.60;;
51525;SDS011;37611;51.794;21.590;2023-09-12T19:02:48;28.70;;;25.60;;
51525;SDS011;37611;51.794;21.590;2023-09-12T19:06:50;27.80;;;24.50;;
51525;SDS011;37611;51.794;21.590;2023-09-12T19:10:52;28.70;;;25.80;;
51525;SDS011;37611;51.794;21.590;2023-09-12T19:14:54;29.30;;;26.40;;
51525;SDS011;37611;51.794;21.590;2023-09-12T19:18:56;30.80;;;27.50;;
51525;SDS011;37611;51.794;21.590;2023-09-12T19:22:58;35.40;;;29.40;;
51525;SDS011;37611;51.794;21.590;2023-09-12T19:27:00;37.70;;;29.80;;
51525;SDS011;37611;51.794;21.590;2023-09-12T19:31:03;31.80;;;28.60;;
51525;SDS011;37611;51.794;21.590;2023-09-12T19:35:05;33.90;;;29.80;;
51525;SDS011;37611;51.794;21.590;2023-09-12T19:39:08;33.10;;;29.20;;
51525;SDS011;37611;51.794;21.590;2023-09-12T19:43:10;44.90;;;36.80;;
51525;SDS011;37611;51.794;21.590;2023-09-12T19:47:12;41.70;;;35.90;;
51525;SDS011;37611;51.794;21.590;2023-09-12T19:51:14;35.90;;;32.30;;
51525;SDS011;37611;51.794;21.590;2023-09-12T19:55:16;32.80;;;29.10;;
51525;SDS011;37611;51.794;21.590;2023-09-12T19:59:18;29.80;;;27.00;;
51525;SDS011;37611;51.794;21.590;2023-09-12T20:03:20;32.00;;;27.60;;
51525;SDS011;37611;51.794;21.590;2023-09-12T20:07:22;30.60;;;27.60;;
51525;SDS011;37611;51.794;21.590;2023-09-12T20:11:24;28.10;;;25.30;;
51525;SDS011;37611;51.794;21.590;2023-09-12T20:15:26;30.30;;;27.10;;
51525;SDS011;37611;51.794;21.590;2023-09-12T20:19:27;29.30;;;26.30;;
51525;SDS011;37611;51.794;21.590;2023-09-12T20:23:29;29.00;;;26.10;;
51525;SDS011;37611;51.794;21.590;2023-09-12T20:27:31;29.40;;;26.50;;
51525;SDS011;37611;51.794;21.590;2023-09-12T20:31:32;31.30;;;28.10;;
51525;SDS011;37611;51.794;21.590;2023-09-12T20:35:36;42.30;;;33.70;;
51525;SDS011;37611;51.794;21.590;2023-09-12T20:39:38;34.90;;;30.00;;
51525;SDS011;37611;51.794;21.590;2023-09-12T20:43:40;36.60;;;32.50;;
51525;SDS011;37611;51.794;21.590;2023-09-12T20:47:42;44.30;;;36.20;;
51525;SDS011;37611;51.794;21.590;2023-09-12T20:51:47;40.80;;;32.50;;
51525;SDS011;37611;51.794;21.590;2023-09-12T20:55:50;43.40;;;35.10;;
51525;SDS011;37611;51.794;21.590;2023-09-12T20:59:52;38.00;;;34.00;;
51525;SDS011;37611;51.794;21.590;2023-09-12T21:03:53;45.30;;;35.10;;
51525;SDS011;37611;51.794;21.590;2023-09-12T21:07:56;40.80;;;33.20;;
51525;SDS011;37611;51.794;21.590;2023-09-12T21:11:58;42.60;;;34.30;;
51525;SDS011;37611;51.794;21.590;2023-09-12T21:16:00;41.10;;;33.30;;
51525;SDS011;37611;51.794;21.590;2023-09-12T21:20:05;35.30;;;31.60;;
51525;SDS011;37611;51.794;21.590;2023-09-12T21:24:07;36.90;;;32.50;;
51525;SDS011;37611;51.794;21.590;2023-09-12T21:28:09;38.90;;;33.30;;
51525;SDS011;37611;51.794;21.590;2023-09-12T21:32:12;40.40;;;31.40;;
51525;SDS011;37611;51.794;21.590;2023-09-12T21:36:13;37.10;;;31.10;;
51525;SDS011;37611;51.794;21.590;2023-09-12T21:40:15;40.70;;;31.60;;
51525;SDS011;37611;51.794;21.590;2023-09-12T21:44:17;39.70;;;32.60;;
51525;SDS011;37611;51.794;21.590;2023-09-12T21:48:19;38.40;;;32.60;;
51525;SDS011;37611;51.794;21.590;2023-09-12T21:52:21;35.00;;;31.30;;
51525;SDS011;37611;51.794;21.590;2023-09-12T21:56:25;35.10;;;31.30;;
51525;SDS011;37611;51.794;21.590;2023-09-12T22:00:27;35.40;;;30.80;;
51525;SDS011;37611;51.794;21.590;2023-09-12T22:04:30;34.80;;;31.30;;
51525;SDS011;37611;51.794;21.590;2023-09-12T22:08:31;36.30;;;32.60;;
51525;SDS011;37611;51.794;21.590;2023-09-12T22:12:34;36.50;;;32.60;;
51525;SDS011;37611;51.794;21.590;2023-09-12T22:16:36;36.00;;;32.30;;
51525;SDS011;37611;51.794;21.590;2023-09-12T22:20:38;37.40;;;32.50;;
51525;SDS011;37611;51.794;21.590;2023-09-12T22:24:40;38.30;;;33.00;;
51525;SDS011;37611;51.794;21.590;2023-09-12T22:28:42;37.30;;;33.30;;
51525;SDS011;37611;51.794;21.590;2023-09-12T22:32:44;36.90;;;33.00;;
51525;SDS011;37611;51.794;21.590;2023-09-12T22:36:45;39.70;;;34.50;;
51525;SDS011;37611;51.794;21.590;2023-09-12T22:40:47;38.50;;;34.40;;
51525;SDS011;37611;51.794;21.590;2023-09-12T22:44:49;40.80;;;32.80;;
51525;SDS011;37611;51.794;21.590;2023-09-12T22:48:51;36.50;;;32.60;;
51525;SDS011;37611;51.794;21.590;2023-09-12T22:52:53;40.20;;;33.40;;
51525;SDS011;37611;51.794;21.590;2023-09-12T22:56:55;37.90;;;33.90;;
51525;SDS011;37611;51.794;21.590;2023-09-12T23:00:57;35.90;;;32.00;;
51525;SDS011;37611;51.794;21.590;2023-09-12T23:04:59;38.10;;;34.00;;
51525;SDS011;37611;51.794;21.590;2023-09-12T23:09:01;39.40;;;34.10;;
51525;SDS011;37611;51.794;21.590;2023-09-12T23:13:03;40.30;;;35.20;;
51525;SDS011;37611;51.794;21.590;2023-09-12T23:17:04;36.70;;;32.90;;
51525;SDS011;37611;51.794;21.590;2023-09-12T23:21:06;37.60;;;34.00;;
51525;SDS011;37611;51.794;21.590;2023-09-12T23:25:08;37.50;;;33.50;;
51525;SDS011;37611;51.794;21.590;2023-09-12T23:29:13;37.10;;;33.30;;
51525;SDS011;37611;51.794;21.590;2023-09-12T23:33:15;38.90;;;34.70;;
51525;SDS011;37611;51.794;21.590;2023-09-12T23:37:17;36.70;;;33.10;;
51525;SDS011;37611;51.794;21.590;2023-09-12T23:41:18;38.50;;;33.60;;
51525;SDS011;37611;51.794;21.590;2023-09-12T23:45:20;38.80;;;34.00;;
51525;SDS011;37611;51.794;21.590;2023-09-12T23:49:22;41.50;;;36.90;;
51525;SDS011;37611;51.794;21.590;2023-09-12T23:53:24;46.60;;;37.00;;
51525;SDS011;37611;51.794;21.590;2023-09-12T23:57:25;43.40;;;37.30;;
